Terminal Aerodrome Forecast
Issued by NWS Sioux Falls, SD

Home | Current Version | Previous Version | Text Only | Print | Product List | Glossary Off
Versions: 1 2 3 4 5 6 7 8 9 10 11 12 13

000
FTUS43 KFSD 172320
TAFHON
TAF
KHON 172320Z 1800/1824 16007KT P6SM BKN090
     FM180600 16008KT P6SM VCSH BKN070
     FM181100 15008KT P6SM SCT060
     FM181500 16011KT P6SM SCT060=

USA.gov is the U.S. government's official web portal to all federal, state and local government web resources and services.